createdAt,value
2019-04-22T00:00:36.539Z,24.30
2019-04-22T00:03:07.490Z,23.23
2019-04-22T00:05:56.332Z,18.60
2019-04-22T00:08:34.450Z,21.33
2019-04-22T00:11:09.864Z,23.67
2019-04-22T00:13:40.677Z,25.87
2019-04-22T00:16:00.623Z,23.13
2019-04-22T00:18:56.477Z,22.70
2019-04-22T00:21:14.282Z,23.67
2019-04-22T00:23:39.367Z,22.30
2019-04-22T00:26:16.562Z,22.47
2019-04-22T00:28:52.228Z,24.97
2019-04-22T00:31:21.324Z,24.87
2019-04-22T00:33:52.972Z,21.23
2019-04-22T00:36:23.559Z,25.83
2019-04-22T00:38:59.052Z,23.53
2019-04-22T00:41:30.058Z,21.90
2019-04-22T00:44:05.309Z,24.17
2019-04-22T00:46:31.544Z,22.00
2019-04-22T00:49:49.432Z,22.33
2019-04-22T00:51:44.732Z,22.77
2019-04-22T00:54:07.260Z,26.13
2019-04-22T00:56:35.275Z,21.83
2019-04-22T00:59:07.099Z,20.40
2019-04-22T01:01:37.264Z,24.83
2019-04-22T01:04:22.303Z,22.30
2019-04-22T01:06:47.222Z,22.37
2019-04-22T01:09:17.446Z,23.80
2019-04-22T01:11:45.008Z,23.40
2019-04-22T01:14:25.051Z,22.67
2019-04-22T01:16:57.882Z,25.60
2019-04-22T01:19:21.300Z,25.23
2019-04-22T01:21:52.324Z,19.80
2019-04-22T01:24:22.125Z,27.13
2019-04-22T01:26:49.511Z,27.33
2019-04-22T01:29:19.713Z,26.30
2019-04-22T01:31:39.991Z,22.97
2019-04-22T01:34:24.739Z,20.53
2019-04-22T01:36:57.724Z,24.00
2019-04-22T01:39:40.312Z,22.83
2019-04-22T01:42:05.568Z,22.43
2019-04-22T01:44:42.215Z,22.80
2019-04-22T01:47:10.096Z,24.57
2019-04-22T01:49:46.156Z,24.70
2019-04-22T01:52:15.492Z,20.17
2019-04-22T01:54:48.533Z,26.70
2019-04-22T01:57:20.448Z,25.47
2019-04-22T01:59:41.011Z,24.53
2019-04-22T02:02:23.304Z,23.67
2019-04-22T02:07:23.528Z,23.93
2019-04-22T02:09:55.521Z,24.43
2019-04-22T02:12:33.671Z,27.17
2019-04-22T02:15:06.660Z,23.60
2019-04-22T02:17:41.543Z,25.53
2019-04-22T02:23:30.530Z,27.57
2019-04-22T02:25:52.603Z,25.13
2019-04-22T02:28:28.048Z,27.83
2019-04-22T02:31:13.924Z,28.17
2019-04-22T02:36:08.148Z,28.70
2019-04-22T02:38:47.091Z,27.53
2019-04-22T02:41:16.057Z,28.50
2019-04-22T02:43:49.212Z,25.27
2019-04-22T02:48:53.809Z,21.97
2019-04-22T02:51:12.580Z,30.00
2019-04-22T02:56:23.128Z,21.93
2019-04-22T03:08:45.665Z,31.47
2019-04-22T03:11:18.660Z,31.03
2019-04-22T03:16:26.669Z,29.17
2019-04-22T03:24:08.987Z,34.03
2019-04-22T03:26:40.924Z,34.97
2019-04-22T03:42:09.780Z,37.53
2019-04-22T03:44:49.571Z,31.47
2019-04-22T03:47:16.086Z,36.47
2019-04-22T03:49:47.470Z,30.73
2019-04-22T03:54:45.740Z,38.17
2019-04-22T03:57:36.962Z,34.73
2019-04-22T04:02:21.457Z,32.60
2019-04-22T04:04:47.573Z,33.37
2019-04-22T04:07:38.306Z,35.83
2019-04-22T04:17:45.888Z,34.23
2019-04-22T04:22:42.454Z,37.40
2019-04-22T04:25:17.153Z,38.97
2019-04-22T04:32:45.069Z,37.50
2019-04-22T04:37:45.870Z,46.93
2019-04-22T04:40:26.416Z,41.67
2019-04-22T04:45:34.249Z,41.57
2019-04-22T04:47:47.756Z,42.17
2019-04-22T04:50:12.138Z,42.77
2019-04-22T05:07:56.072Z,45.77
2019-04-22T05:13:06.761Z,43.77
2019-04-22T05:20:42.664Z,37.03
2019-04-22T05:23:01.920Z,43.17
2019-04-22T05:25:27.279Z,47.30
2019-04-22T05:27:57.691Z,45.67
2019-04-22T05:30:32.046Z,41.90
2019-04-22T05:33:07.360Z,37.57
2019-04-22T05:35:38.565Z,49.40
2019-04-22T05:38:17.215Z,42.07
2019-04-22T05:40:34.768Z,47.03
2019-04-22T05:43:19.535Z,38.87
2019-04-22T05:45:42.985Z,46.33
2019-04-22T05:48:18.348Z,36.67
2019-04-22T05:50:47.434Z,43.43
2019-04-22T05:53:16.505Z,36.27
2019-04-22T05:55:59.756Z,42.53
2019-04-22T05:58:22.788Z,43.80
2019-04-22T06:01:36.715Z,42.20
2019-04-22T06:03:42.576Z,46.70
2019-04-22T06:06:09.259Z,51.20
2019-04-22T06:08:44.385Z,38.27
2019-04-22T06:11:19.801Z,37.67
2019-04-22T06:13:38.463Z,48.40
2019-04-22T06:16:18.301Z,36.53
2019-04-22T06:18:56.627Z,44.40
2019-04-22T06:21:28.101Z,42.43
2019-04-22T06:24:04.967Z,40.60
2019-04-22T06:29:01.517Z,49.10
2019-04-22T06:31:32.747Z,42.53
2019-04-22T06:34:05.941Z,47.60
2019-04-22T06:36:43.568Z,43.57
2019-04-22T06:39:10.544Z,44.90
2019-04-22T06:41:35.453Z,49.40
2019-04-22T06:44:16.171Z,39.47
2019-04-22T06:46:39.682Z,45.67
2019-04-22T06:49:14.373Z,46.00
2019-04-22T06:52:09.218Z,33.17
2019-04-22T06:54:32.947Z,42.17
2019-04-22T06:59:36.567Z,40.53
2019-04-22T07:02:12.351Z,37.30
2019-04-22T07:04:43.014Z,39.57
2019-04-22T07:12:20.435Z,36.87
2019-04-22T07:14:44.028Z,34.77
2019-04-22T07:17:14.260Z,39.13
2019-04-22T07:19:42.224Z,39.40
2019-04-22T07:24:55.942Z,35.27
2019-04-22T07:27:20.630Z,31.60
2019-04-22T07:29:58.193Z,34.83
2019-04-22T07:32:33.338Z,35.20
2019-04-22T07:35:01.477Z,32.93
2019-04-22T07:39:58.322Z,39.30
2019-04-22T07:42:32.903Z,31.00
2019-04-22T07:45:08.515Z,32.80
2019-04-22T07:47:52.200Z,36.10
2019-04-22T07:50:12.821Z,30.23
2019-04-22T07:52:38.494Z,32.13
2019-04-22T07:55:08.784Z,34.83
2019-04-22T07:57:39.143Z,39.73
2019-04-22T08:00:15.936Z,33.40
2019-04-22T08:03:09.821Z,33.53
2019-04-22T08:05:12.513Z,36.80
2019-04-22T08:07:49.220Z,30.77
2019-04-22T08:10:29.814Z,36.30
2019-04-22T08:12:50.799Z,38.47
2019-04-22T08:15:20.112Z,35.87
2019-04-22T08:23:02.841Z,31.63
2019-04-22T08:25:27.133Z,31.97
2019-04-22T08:28:03.738Z,28.60
2019-04-22T08:30:35.237Z,34.50
2019-04-22T08:33:04.698Z,33.00
2019-04-22T08:38:09.960Z,29.40
2019-04-22T08:40:43.207Z,29.67
2019-04-22T08:43:14.439Z,31.47
2019-04-22T08:45:46.227Z,31.23
2019-04-22T08:48:18.608Z,27.17
2019-04-22T08:50:48.894Z,30.53
2019-04-22T08:53:16.121Z,36.23
2019-04-22T08:55:56.056Z,35.90
2019-04-22T09:01:01.071Z,26.83
2019-04-22T09:03:24.368Z,32.07
2019-04-22T09:08:26.322Z,29.17
2019-04-22T09:10:57.392Z,35.57
2019-04-22T09:13:33.137Z,29.43
2019-04-22T09:16:02.232Z,33.00
2019-04-22T09:18:35.112Z,32.13
2019-04-22T09:21:14.314Z,30.73
2019-04-22T09:23:38.772Z,33.57
2019-04-22T09:26:08.885Z,33.47
2019-04-22T09:28:44.259Z,29.57
2019-04-22T09:31:15.477Z,28.37
2019-04-22T09:33:43.293Z,24.07
2019-04-22T09:36:24.352Z,30.83
2019-04-22T09:38:48.695Z,23.47
2019-04-22T09:41:18.876Z,26.60
2019-04-22T09:43:55.024Z,25.00
2019-04-22T09:46:33.179Z,27.60
2019-04-22T09:49:00.328Z,30.83
2019-04-22T09:51:25.571Z,29.00
2019-04-22T09:54:00.993Z,27.03
2019-04-22T09:56:32.152Z,31.53
2019-04-22T09:59:18.681Z,27.03
2019-04-22T10:04:07.108Z,28.93
2019-04-22T10:06:34.025Z,31.63
2019-04-22T10:09:28.487Z,25.70
2019-04-22T10:11:37.740Z,27.30
2019-04-22T10:14:29.001Z,25.13
2019-04-22T10:16:57.970Z,25.93
2019-04-22T10:19:15.002Z,26.67
2019-04-22T10:24:13.933Z,29.80
2019-04-22T10:29:24.854Z,25.20
2019-04-22T10:34:13.158Z,28.57
2019-04-22T10:36:31.053Z,28.10
2019-04-22T10:39:02.306Z,25.73
2019-04-22T10:41:34.770Z,25.23
2019-04-22T10:44:05.478Z,23.70
2019-04-22T10:46:36.025Z,29.27
2019-04-22T10:49:08.285Z,28.03
2019-04-22T10:51:38.210Z,28.57
2019-04-22T10:54:09.504Z,20.43
2019-04-22T10:56:40.768Z,25.53
2019-04-22T10:59:10.976Z,20.30
2019-04-22T11:01:40.702Z,24.77
2019-04-22T11:04:11.212Z,20.47
2019-04-22T11:06:50.699Z,22.43
2019-04-22T11:09:14.144Z,20.90
2019-04-22T11:11:51.071Z,21.00
2019-04-22T11:14:16.779Z,18.03
2019-04-22T11:16:47.672Z,23.13
2019-04-22T11:19:19.425Z,30.30
2019-04-22T11:22:00.947Z,19.37
2019-04-22T11:24:23.103Z,21.80
2019-04-22T11:26:52.942Z,24.67
2019-04-22T11:29:23.735Z,24.70
2019-04-22T11:31:54.623Z,20.53
2019-04-22T11:34:24.912Z,23.27
2019-04-22T11:36:56.845Z,24.13
2019-04-22T11:39:30.794Z,22.83
2019-04-22T11:42:00.442Z,26.17
2019-04-22T11:44:32.904Z,24.43
2019-04-22T11:47:03.378Z,21.53
2019-04-22T11:49:34.172Z,23.37
2019-04-22T11:52:07.303Z,20.73
2019-04-22T11:54:37.009Z,20.13
2019-04-22T11:57:08.013Z,22.07
2019-04-22T11:59:38.526Z,22.33
2019-04-22T12:02:08.996Z,18.93
2019-04-22T12:04:40.050Z,18.33
2019-04-22T12:07:10.919Z,21.20
2019-04-22T12:09:41.867Z,17.87
2019-04-22T12:12:13.941Z,16.50
2019-04-22T12:14:43.762Z,18.97
2019-04-22T12:17:13.852Z,19.87
2019-04-22T12:19:44.252Z,17.50
2019-04-22T12:22:15.333Z,19.53
2019-04-22T12:24:46.088Z,21.20
2019-04-22T12:27:18.608Z,18.60
2019-04-22T12:29:47.270Z,14.73
2019-04-22T12:32:17.760Z,26.57
2019-04-22T12:34:49.241Z,12.13
2019-04-22T12:37:24.802Z,17.13
2019-04-22T12:39:53.071Z,17.00
2019-04-22T12:42:23.543Z,16.50
2019-04-22T12:44:54.121Z,19.07
2019-04-22T12:47:26.259Z,11.13
2019-04-22T12:50:08.986Z,11.90
2019-04-22T12:52:36.962Z,14.50
2019-04-22T12:55:04.017Z,14.50
2019-04-22T12:57:34.716Z,14.70
2019-04-22T13:00:26.965Z,11.23
2019-04-22T13:03:11.068Z,12.23
2019-04-22T13:05:45.156Z,11.13
2019-04-22T13:08:20.122Z,8.07
2019-04-22T13:10:57.435Z,11.07
2019-04-22T13:13:23.071Z,8.27
2019-04-22T13:15:53.162Z,10.07
2019-04-22T13:18:31.892Z,9.73
2019-04-22T13:20:54.798Z,12.17
2019-04-22T13:23:29.823Z,10.57
2019-04-22T13:26:05.019Z,15.77
2019-04-22T13:28:39.026Z,8.93
2019-04-22T13:31:11.728Z,11.73
2019-04-22T13:33:43.287Z,10.93
2019-04-22T13:36:13.158Z,7.30
2019-04-22T13:38:42.975Z,8.13
2019-04-22T13:41:30.484Z,8.70
2019-04-22T13:43:51.016Z,6.63
2019-04-22T13:46:21.952Z,9.57
2019-04-22T13:49:17.873Z,6.27
2019-04-22T13:51:53.086Z,8.70
2019-04-22T13:56:49.071Z,10.77
2019-04-22T13:59:08.740Z,6.90
2019-04-22T14:01:38.590Z,6.92
2019-04-22T14:04:18.524Z,7.25
2019-04-22T14:06:49.092Z,8.60
2019-04-22T14:09:20.394Z,7.00
2019-04-22T14:11:57.892Z,7.25
2019-04-22T14:14:22.123Z,7.95
2019-04-22T14:16:53.419Z,4.75
2019-04-22T14:19:25.907Z,6.45
2019-04-22T14:21:55.958Z,7.22
2019-04-22T14:24:26.035Z,6.92
2019-04-22T14:27:13.762Z,8.95
2019-04-22T14:29:27.502Z,6.78
2019-04-22T14:32:06.715Z,11.05
2019-04-22T14:34:34.325Z,5.78
2019-04-22T14:37:05.473Z,7.42
2019-04-22T14:39:37.762Z,4.55
2019-04-22T14:42:33.452Z,7.97
2019-04-22T14:45:42.601Z,8.28
2019-04-22T14:47:32.854Z,7.53
2019-04-22T14:50:08.002Z,7.37
2019-04-22T14:52:36.013Z,6.67
2019-04-22T14:54:55.427Z,7.15
2019-04-22T14:57:17.044Z,6.62
2019-04-22T14:59:48.258Z,8.38
2019-04-22T15:02:19.633Z,7.53
2019-04-22T15:04:50.097Z,9.00
2019-04-22T15:07:21.111Z,8.73
2019-04-22T15:09:52.278Z,5.28
2019-04-22T15:12:33.631Z,15.10
2019-04-22T15:14:53.556Z,12.13
2019-04-22T15:17:42.836Z,11.10
2019-04-22T15:20:35.453Z,7.12
2019-04-22T15:23:06.538Z,7.10
2019-04-22T15:25:36.786Z,7.80
2019-04-22T15:28:09.039Z,10.32
2019-04-22T15:30:39.420Z,5.85
2019-04-22T15:33:11.600Z,8.40
2019-04-22T15:35:43.176Z,6.72
2019-04-22T15:38:15.574Z,9.13
2019-04-22T15:40:46.944Z,9.18
2019-04-22T15:43:17.082Z,11.75
2019-04-22T15:45:48.565Z,6.90
2019-04-22T15:48:18.813Z,6.45
2019-04-22T15:51:04.812Z,7.08
2019-04-22T15:53:50.038Z,7.03
2019-04-22T15:56:21.093Z,10.43
2019-04-22T15:58:51.769Z,7.28
2019-04-22T16:01:27.576Z,5.90
2019-04-22T16:03:54.912Z,6.00
2019-04-22T16:06:26.205Z,7.90
2019-04-22T16:08:56.167Z,8.80
2019-04-22T16:11:25.983Z,7.40
2019-04-22T16:14:02.173Z,9.30
2019-04-22T16:16:28.448Z,8.25
2019-04-22T16:19:00.534Z,8.65
2019-04-22T16:21:40.454Z,8.25
2019-04-22T16:24:22.307Z,6.97
2019-04-22T16:26:56.087Z,8.20
2019-04-22T16:29:29.625Z,7.45
2019-04-22T16:32:01.077Z,9.30
2019-04-22T16:34:31.320Z,14.33
2019-04-22T16:37:01.142Z,11.40
2019-04-22T16:39:31.142Z,8.23
2019-04-22T16:42:02.464Z,7.10
2019-04-22T16:44:32.600Z,9.65
2019-04-22T16:47:08.051Z,6.97
2019-04-22T16:49:39.340Z,5.65
2019-04-22T16:52:10.138Z,5.97
2019-04-22T16:54:42.099Z,7.37
2019-04-22T16:57:12.785Z,7.95
2019-04-22T16:59:42.797Z,4.92
2019-04-22T17:02:30.877Z,9.20
2019-04-22T17:05:07.245Z,6.67
2019-04-22T17:07:38.274Z,11.05
2019-04-22T17:10:08.381Z,8.05
2019-04-22T17:12:46.619Z,6.37
2019-04-22T17:15:12.703Z,7.20
2019-04-22T17:17:43.261Z,6.60
2019-04-22T17:20:13.502Z,9.58
2019-04-22T17:22:43.773Z,6.30
2019-04-22T17:25:14.113Z,5.03
2019-04-22T17:27:45.499Z,3.95
2019-04-22T17:30:16.668Z,4.67
2019-04-22T17:32:48.242Z,6.70
2019-04-22T17:35:19.690Z,5.47
2019-04-22T17:38:00.325Z,7.17
2019-04-22T17:40:38.815Z,7.37
2019-04-22T17:43:16.925Z,4.17
2019-04-22T17:45:55.899Z,6.70
2019-04-22T17:48:43.144Z,7.90
2019-04-22T17:51:27.566Z,7.90
2019-04-22T17:53:55.086Z,6.65
2019-04-22T17:56:27.542Z,6.10
2019-04-22T17:58:57.382Z,5.73
2019-04-22T18:01:29.253Z,4.57
2019-04-22T18:03:45.777Z,6.03
2019-04-22T18:06:26.792Z,7.20
2019-04-22T18:09:03.663Z,5.77
2019-04-22T18:11:43.009Z,12.50
2019-04-22T18:14:26.062Z,5.47
2019-04-22T18:16:40.407Z,12.60
2019-04-22T18:19:10.013Z,6.43
2019-04-22T18:21:41.181Z,6.53
2019-04-22T18:24:06.798Z,5.90
2019-04-22T18:26:49.798Z,4.80
2019-04-22T18:29:16.238Z,15.27
2019-04-22T18:31:43.232Z,4.67
2019-04-22T18:34:16.972Z,13.40
2019-04-22T18:36:54.133Z,8.37
2019-04-22T18:39:33.461Z,31.07
2019-04-22T18:41:58.612Z,10.33
2019-04-22T18:44:34.841Z,8.20
2019-04-22T18:47:01.305Z,11.87
2019-04-22T18:49:38.671Z,6.67
2019-04-22T18:52:28.116Z,13.53
2019-04-22T18:55:11.563Z,8.20
2019-04-22T18:57:44.031Z,10.93
2019-04-22T19:00:12.219Z,11.33
2019-04-22T19:02:50.726Z,9.33
2019-04-22T19:05:26.499Z,5.27
2019-04-22T19:08:13.771Z,16.30
2019-04-22T19:10:51.764Z,8.97
2019-04-22T19:13:45.193Z,11.23
2019-04-22T19:15:53.876Z,11.37
2019-04-22T19:18:24.450Z,8.63
2019-04-22T19:20:51.370Z,6.10
2019-04-22T19:23:23.973Z,10.50
2019-04-22T19:25:47.225Z,7.73
2019-04-22T19:31:05.603Z,11.23
2019-04-22T19:33:35.248Z,9.03
2019-04-22T19:36:07.499Z,9.57
2019-04-22T19:38:27.575Z,9.03
2019-04-22T19:41:13.435Z,11.23
2019-04-22T19:43:38.975Z,7.53
2019-04-22T19:46:09.026Z,12.70
2019-04-22T19:48:45.592Z,6.70
2019-04-22T19:51:17.161Z,9.03
2019-04-22T19:53:47.419Z,7.13
2019-04-22T19:56:14.352Z,10.30
2019-04-22T19:58:42.659Z,8.57
2019-04-22T20:01:28.704Z,9.40
2019-04-22T20:04:46.128Z,12.70
2019-04-22T20:07:13.077Z,8.73
2019-04-22T20:09:50.532Z,7.07
2019-04-22T20:12:18.819Z,5.83
2019-04-22T20:14:49.712Z,7.90
2019-04-22T20:17:26.631Z,10.93
2019-04-22T20:20:06.555Z,8.10
2019-04-22T20:22:26.405Z,6.60
2019-04-22T20:24:47.594Z,6.23
2019-04-22T20:27:31.736Z,10.73
2019-04-22T20:30:04.640Z,9.57
2019-04-22T20:32:34.208Z,7.47
2019-04-22T20:35:07.969Z,8.27
2019-04-22T20:37:38.562Z,5.47
2019-04-22T20:40:10.649Z,9.33
2019-04-22T20:45:18.128Z,7.73
2019-04-22T20:47:39.672Z,5.20
2019-04-22T20:50:21.781Z,7.00
2019-04-22T20:52:57.329Z,4.63
2019-04-22T20:55:14.760Z,6.90
2019-04-22T20:57:53.654Z,6.87
2019-04-22T21:00:15.426Z,9.93
2019-04-22T21:02:48.260Z,6.13
2019-04-22T21:05:22.554Z,12.93
2019-04-22T21:08:01.463Z,5.97
2019-04-22T21:10:27.463Z,8.77
2019-04-22T21:12:57.164Z,8.37
2019-04-22T21:15:42.437Z,5.93
2019-04-22T21:18:00.853Z,7.37
2019-04-22T21:20:41.524Z,6.93
2019-04-22T21:23:14.666Z,6.63
2019-04-22T21:25:31.910Z,3.27
2019-04-22T21:28:14.474Z,4.13
2019-04-22T21:30:45.400Z,3.93
2019-04-22T21:33:13.879Z,6.20
2019-04-22T21:35:59.533Z,5.60
2019-04-22T21:38:21.420Z,11.80
2019-04-22T21:40:52.261Z,6.40
2019-04-22T21:43:24.515Z,4.03
2019-04-22T21:45:52.369Z,5.73
2019-04-22T21:48:31.308Z,4.20
2019-04-22T21:50:59.521Z,7.03
2019-04-22T21:53:38.017Z,12.27
2019-04-22T21:56:11.404Z,5.10
2019-04-22T21:58:41.363Z,10.07
2019-04-22T22:01:44.411Z,7.03
2019-04-22T22:04:09.706Z,9.73
2019-04-22T22:06:31.072Z,6.83
2019-04-22T22:09:08.693Z,3.17
2019-04-22T22:11:41.757Z,5.70
2019-04-22T22:14:13.594Z,3.20
2019-04-22T22:16:37.440Z,7.80
2019-04-22T22:19:17.698Z,6.07
2019-04-22T22:21:54.125Z,4.67
2019-04-22T22:24:22.653Z,5.00
2019-04-22T22:26:50.181Z,4.37
2019-04-22T22:29:31.319Z,4.00
2019-04-22T22:31:52.862Z,4.63
2019-04-22T22:34:24.553Z,3.57
2019-04-22T22:36:50.422Z,3.20
2019-04-22T22:39:24.888Z,9.40
2019-04-22T22:41:44.046Z,2.90
2019-04-22T22:44:21.164Z,6.57
2019-04-22T22:47:03.615Z,5.27
2019-04-22T22:49:42.956Z,7.60
2019-04-22T22:52:45.206Z,3.03
2019-04-22T22:54:38.927Z,2.87
2019-04-22T22:59:42.961Z,4.20
2019-04-22T23:02:19.854Z,5.73
2019-04-22T23:04:45.388Z,4.53
2019-04-22T23:07:24.309Z,5.70
2019-04-22T23:09:48.788Z,3.17
2019-04-22T23:12:34.583Z,7.87
2019-04-22T23:14:50.155Z,2.30
2019-04-22T23:17:08.446Z,4.30
2019-04-22T23:19:41.902Z,3.30
2019-04-22T23:22:17.873Z,4.63
2019-04-22T23:25:03.210Z,4.27
2019-04-22T23:27:43.215Z,3.50
2019-04-22T23:30:26.795Z,4.83
2019-04-22T23:33:03.344Z,3.53
2019-04-22T23:35:42.526Z,3.57
2019-04-22T23:38:18.402Z,6.03
2019-04-22T23:40:52.683Z,4.40
2019-04-22T23:43:27.612Z,3.73
2019-04-22T23:45:56.654Z,1.70
2019-04-22T23:48:21.076Z,3.47
2019-04-22T23:51:02.892Z,6.77
2019-04-22T23:53:47.971Z,4.60
2019-04-22T23:56:06.170Z,3.27
